Flight Track Log - Related Links

Times and Time Zones

All times are in EDT time to prevent confusion due to time zone crossing. See the N1922T flight status page for this flight to view local times or setup timezone preferences in your user account.

Time Position Orientation Groundspeed Altitude Reporting Facility
EDT Latitude Longitude Course Direction KTS MPH feet Rate Location/Type
Thu 11:17:32 AM 36.1733 -102.4544 35° Northeast 143 165 7,100  Level Kansas City Center
Thu 11:18:33 AM 36.2061 -102.4258 35° Northeast 143 165 7,600 432 Climbing Kansas City Center
Thu 11:19:37 AM 36.2378 -102.3956 38° Northeast 143 165 8,000 435 Climbing Kansas City Center
Thu 11:20:37 AM 36.2700 -102.3664 36° Northeast 143 165 8,500 435 Climbing Kansas City Center
Thu 11:21:41 AM 36.3003 -102.3386 36° Northeast 142 163 8,900 432 Climbing Kansas City Center
Thu 11:22:42 AM 36.3383 -102.3025 37° Northeast 141 162 9,400 435 Climbing Kansas City Center
Thu 11:23:45 AM 36.3717 -102.2736 35° Northeast 141 162 9,800 387 Climbing Kansas City Center
Thu 11:24:46 AM 36.4056 -102.2422 37° Northeast 146 168 10,200 435 Climbing Kansas City Center
Thu 11:25:49 AM 36.4386 -102.2097 38° Northeast 148 170 10,700 435 Climbing Kansas City Center
Thu 11:26:50 AM 36.4722 -102.1786 37° Northeast 150 173 11,100 435 Climbing Kansas City Center
Thu 11:27:53 AM 36.5064 -102.1472 36° Northeast 150 173 11,600 484 Climbing Kansas City Center
Thu 11:28:54 AM 36.5461 -102.1094 37° Northeast 150 173 12,100 480 Climbing Kansas City Center
Thu 11:29:58 AM 36.5797 -102.0789 36° Northeast 150 173 12,600 435 Climbing Kansas City Center
Thu 11:30:58 AM 36.6128 -102.0492 36° Northeast 148 170 13,000 194 Climbing Kansas City Center
Thu 11:32:02 AM 36.6481 -102.0128 40° Northeast 162 186 13,000  Level Kansas City Center
Thu 11:33:02 AM 36.6947 -101.9722 35° Northeast 177 204 13,000  Level Kansas City Center
Thu 11:34:06 AM 36.7328 -101.9353 38° Northeast 181 208 13,000  Level Kansas City Center
Thu 11:35:06 AM 36.7775 -101.8958 35° Northeast 180 207 13,000  Level Kansas City Center
Thu 11:36:10 AM 36.8147 -101.8592 38° Northeast 179 206 13,000  Level Kansas City Center
Thu 11:37:10 AM 36.8586 -101.8186 36° Northeast 179 206 13,000  Level Kansas City Center
Thu 11:38:14 AM 36.8942 -101.7825 39° Northeast 176 203 13,000  Level Kansas City Center
Thu 11:39:15 AM 36.9383 -101.7442 35° Northeast 175 201 13,000  Level Kansas City Center
Thu 11:40:18 AM 36.9753 -101.7094 37° Northeast 175 201 13,000  Level Kansas City Center
Thu 11:41:20 AM 37.0178 -101.6689 37° Northeast 174 200 13,000  Level Kansas City Center
Thu 11:42:21 AM 37.0542 -101.6336 38° Northeast 174 200 13,000  Level Kansas City Center
Thu 11:43:24 AM 37.0981 -101.5919 37° Northeast 174 200 13,000  Level Kansas City Center
Thu 11:44:25 AM 37.1353 -101.5569 37° Northeast 174 200 13,000  Level Kansas City Center
Thu 11:45:29 AM 37.1789 -101.5153 37° Northeast 175 201 13,000  Level Kansas City Center
Thu 11:46:32 AM 37.2167 -101.4786 38° Northeast 175 201 13,000  Level Kansas City Center
Thu 11:47:32 AM 37.2606 -101.4381 36° Northeast 176 203 13,000  Level Kansas City Center
Thu 11:48:34 AM 37.2981 -101.4014 38° Northeast 176 203 13,000  Level Kansas City Center
Thu 11:49:37 AM 37.3428 -101.3589 37° Northeast 177 204 13,000  Level Kansas City Center
Thu 11:50:40 AM 37.3808 -101.3233 37° Northeast 178 205 13,000  Level Kansas City Center
Thu 11:51:41 AM 37.4244 -101.2806 38° Northeast 178 205 13,000  Level Kansas City Center
Thu 11:52:42 AM 37.4619 -101.2447 37° Northeast 178 205 13,000  Level Kansas City Center
Thu 11:53:45 AM 37.4997 -101.2081 38° Northeast 178 205 13,000  Level Kansas City Center
Thu 11:55:50 AM 37.5886 -101.1231 37° Northeast 177 204 13,000  Level Denver Center
Thu 11:56:52 AM 37.6261 -101.0867 38° Northeast 177 204 13,000  Level Denver Center
Thu 11:57:54 AM 37.6642 -101.0506 37° Northeast 178 205 13,000  Level Kansas City Center
Thu 11:59:59 AM 37.7461 -100.9722 37° Northeast 177 204 13,000  Level Denver Center
Thu 12:01:00 PM 37.7908 -100.9289 37° Northeast 178 205 13,000  Level Kansas City Center
Thu 12:02:03 PM 37.8278 -100.8917 39° Northeast 178 205 13,000  Level Kansas City Center
Thu 12:03:04 PM 37.8644 -100.8558 38° Northeast 178 205 13,000  Level Kansas City Center
Thu 12:05:09 PM 37.9525 -100.7700 38° Northeast 177 204 13,000  Level Denver Center
Thu 12:06:10 PM 37.9908 -100.7331 37° Northeast 178 205 13,000  Level Kansas City Center
Thu 12:07:13 PM 38.0283 -100.6967 37° Northeast 178 205 13,000  Level Kansas City Center
Thu 12:08:14 PM 38.0736 -100.6519 38° Northeast 179 206 13,000  Level Kansas City Center
Thu 12:09:18 PM 38.1119 -100.6142 38° Northeast 181 208 13,000  Level Kansas City Center
Thu 12:10:18 PM 38.1567 -100.5694 38° Northeast 182 209 13,000  Level Kansas City Center
Thu 12:11:21 PM 38.1953 -100.5317 38° Northeast 182 209 13,000  Level Kansas City Center
Thu 12:13:26 PM 38.2783 -100.4503 38° Northeast 182 209 13,000  Level Kansas City Center
Thu 12:14:27 PM 38.3228 -100.4061 38° Northeast 182 209 13,000  Level Kansas City Center
Thu 12:15:31 PM 38.3608 -100.3689 37° Northeast 182 209 13,000  Level Kansas City Center
Thu 12:16:32 PM 38.4053 -100.3250 38° Northeast 181 208 13,000  Level Kansas City Center
Thu 12:17:33 PM 38.4436 -100.2872 38° Northeast 181 208 13,000  Level Kansas City Center
Thu 12:18:37 PM 38.4883 -100.2431 38° Northeast 182 209 13,000  Level Kansas City Center
Thu 12:19:37 PM 38.5264 -100.2050 38° Northeast 181 208 13,000  Level Kansas City Center
Thu 12:20:41 PM 38.5647 -100.1656 39° Northeast 184 212 13,000  Level Kansas City Center
Thu 12:21:43 PM 38.6100 -100.1214 37° Northeast 184 212 13,000  Level Kansas City Center
Thu 12:22:44 PM 38.6483 -100.0825 38° Northeast 184 212 13,000  Level Kansas City Center
Thu 12:23:47 PM 38.6928 -100.0378 38° Northeast 183 211 13,000  Level Kansas City Center
Thu 12:24:48 PM 38.7333 -99.9994 36° Northeast 184 212 13,000  Level Kansas City Center
Thu 12:25:50 PM 38.7789 -99.9519 39° Northeast 185 213 13,000  Level Kansas City Center
Thu 12:26:53 PM 38.8167 -99.9150 37° Northeast 184 212 13,000  Level Kansas City Center
Thu 12:27:54 PM 38.8628 -99.8683 38° Northeast 185 213 13,000  Level Kansas City Center
Thu 12:28:57 PM 38.9006 -99.8306 38° Northeast 183 211 13,000  Level Denver Center
Thu 12:29:59 PM 38.9456 -99.7825 40° Northeast 184 212 13,000  Level Denver Center
Thu 12:31:01 PM 38.9842 -99.7447 37° Northeast 184 212 13,000  Level Denver Center
Thu 12:32:03 PM 39.0297 -99.6986 38° Northeast 183 211 13,000  Level Denver Center
Thu 12:33:06 PM 39.0672 -99.6608 38° Northeast 183 211 13,000  Level Denver Center
Thu 12:34:08 PM 39.1114 -99.6175 37° Northeast 181 208 13,000  Level Denver Center
Thu 12:35:10 PM 39.1478 -99.5797 39° Northeast 179 206 13,000  Level Denver Center
Thu 12:36:12 PM 39.1906 -99.5356 39° Northeast 178 205 13,000  Level Denver Center
Thu 12:37:14 PM 39.2314 -99.4939 38° Northeast 178 205 13,000  Level Denver Center
Thu 12:38:16 PM 39.2689 -99.4556 38° Northeast 178 205 13,000  Level Denver Center
Thu 12:39:18 PM 39.3136 -99.4108 38° Northeast 180 207 13,000  Level Denver Center
Thu 12:40:20 PM 39.3514 -99.3728 38° Northeast 181 208 13,000  Level Denver Center
Thu 12:41:22 PM 39.3950 -99.3267 39° Northeast 181 208 13,000  Level Denver Center
Thu 12:42:24 PM 39.4328 -99.2894 37° Northeast 181 208 13,000  Level Denver Center
Thu 12:43:26 PM 39.4714 -99.2492 39° Northeast 181 208 13,000  Level Denver Center
Thu 12:44:29 PM 39.5108 -99.2072 39° Northeast 182 209 13,000  Level Denver Center
Thu 12:45:31 PM 39.5572 -99.1600 38° Northeast 179 206 13,000  Level Denver Center
Thu 12:46:33 PM 39.5953 -99.1214 38° Northeast 178 205 13,000  Level Denver Center
Thu 12:47:35 PM 39.6325 -99.0825 39° Northeast 175 201 13,000  Level Denver Center
Thu 12:48:37 PM 39.6697 -99.0444 38° Northeast 174 200 13,000  Level Denver Center
Thu 12:49:39 PM 39.7061 -99.0058 39° Northeast 172 198 13,000  Level Denver Center
Thu 12:50:41 PM 39.7419 -98.9667 40° Northeast 170 196 13,000  Level Denver Center
Thu 12:51:43 PM 39.7847 -98.9189 41° Northeast 170 196 13,000  Level Denver Center
Thu 12:52:46 PM 39.8231 -98.8828 36° Northeast 170 196 13,000  Level Denver Center
Thu 12:53:48 PM 39.8614 -98.8439 38° Northeast 171 197 13,000  Level Denver Center
Thu 12:54:50 PM 39.8992 -98.8042 39° Northeast 172 198 13,000  Level Denver Center
Thu 12:55:42 PM 39.9292 -98.7708 40° Northeast 172 198 13,000  Level Minneapolis Center
Thu 12:56:45 PM 39.9739 -98.7247 38° Northeast 172 198 13,000  Level Minneapolis Center
Thu 12:57:47 PM 40.0117 -98.6833 40° Northeast 172 198 13,000  Level Minneapolis Center
Thu 12:58:49 PM 40.0494 -98.6472 36° Northeast 172 198 13,000  Level Minneapolis Center
Thu 12:59:51 PM 40.0850 -98.6086 40° Northeast 171 197 13,000  Level Minneapolis Center
Thu 01:00:53 PM 40.1233 -98.5703 37° Northeast 171 197 13,000  Level Minneapolis Center
Thu 01:01:55 PM 40.1583 -98.5314 40° Northeast 170 196 13,000  Level Minneapolis Center
Thu 01:02:58 PM 40.2028 -98.4850 39° Northeast 170 196 13,000  Level Minneapolis Center
Thu 01:04:00 PM 40.2394 -98.4458 39° Northeast 170 196 13,000  Level Minneapolis Center
Thu 01:05:02 PM 40.2761 -98.4067 39° Northeast 170 196 13,000  Level Minneapolis Center
Thu 01:06:04 PM 40.3131 -98.3678 39° Northeast 170 196 13,000  Level Minneapolis Center
Thu 01:07:06 PM 40.3492 -98.3286 40° Northeast 170 196 13,000  Level Minneapolis Center
Thu 01:08:08 PM 40.3864 -98.2900 38° Northeast 170 196 13,000  Level Minneapolis Center
Thu 01:09:10 PM 40.4300 -98.2422 40° Northeast 170 196 13,000  Level Minneapolis Center
Thu 01:10:13 PM 40.4672 -98.2033 38° Northeast 170 196 13,000  Level Minneapolis Center
Thu 01:11:15 PM 40.5039 -98.1639 39° Northeast 170 196 13,000 48 Level Minneapolis Center
Thu 01:12:17 PM 40.5394 -98.1242 40° Northeast 170 196 13,100  Climbing Minneapolis Center
Thu 01:13:19 PM 40.5753 -98.0875 38° Northeast 169 194 13,000 -48 Descending Minneapolis Center
Thu 01:14:21 PM 40.6181 -98.0403 40° Northeast 168 193 13,000  Level Minneapolis Center
Thu 01:15:24 PM 40.6522 -98.0017 41° Northeast 168 193 13,000  Level Minneapolis Center
Thu 01:16:26 PM 40.6881 -97.9653 38° Northeast 167 192 13,000  Level Minneapolis Center
Thu 01:17:28 PM 40.7231 -97.9278 39° Northeast 167 192 13,000  Level Minneapolis Center
Thu 01:18:30 PM 40.7578 -97.8892 40° Northeast 167 192 13,000  Level Minneapolis Center
Thu 01:19:32 PM 40.7925 -97.8522 39° Northeast 166 191 13,000  Level Minneapolis Center
Thu 01:20:34 PM 40.8350 -97.8061 39° Northeast 166 191 13,000  Level Minneapolis Center
Thu 01:21:37 PM 40.8706 -97.7678 39° Northeast 166 191 13,000  Level Minneapolis Center
Thu 01:22:39 PM 40.9058 -97.7297 39° Northeast 166 191 13,000  Level Minneapolis Center
Thu 01:23:41 PM 40.9411 -97.6914 39° Northeast 166 191 13,000  Level Minneapolis Center
Thu 01:24:43 PM 40.9758 -97.6528 40° Northeast 166 191 13,000  Level Minneapolis Center
Thu 01:25:45 PM 41.0114 -97.6139 40° Northeast 166 191 13,000  Level Minneapolis Center
Thu 01:26:47 PM 41.0536 -97.5681 39° Northeast 165 190 13,000  Level Minneapolis Center
Thu 01:27:50 PM 41.0892 -97.5289 40° Northeast 165 190 13,000  Level Minneapolis Center
Thu 01:28:52 PM 41.1250 -97.4908 39° Northeast 166 191 13,000  Level Minneapolis Center
Thu 01:29:54 PM 41.1597 -97.4522 40° Northeast 165 190 13,000  Level Minneapolis Center
Thu 01:30:56 PM 41.1931 -97.4147 40° Northeast 163 188 13,000  Level Minneapolis Center
Thu 01:31:58 PM 41.2278 -97.3781 38° Northeast 161 185 13,000  Level Minneapolis Center
Thu 01:33:00 PM 41.2678 -97.3331 40° Northeast 160 184 13,000  Level Minneapolis Center
Thu 01:34:02 PM 41.3014 -97.2961 40° Northeast 160 184 13,000  Level Minneapolis Center
Thu 01:35:05 PM 41.3347 -97.2572 41° Northeast 160 184 13,000  Level Minneapolis Center
Thu 01:36:07 PM 41.3706 -97.2189 39° Northeast 160 184 13,000  Level Minneapolis Center
Thu 01:37:09 PM 41.4053 -97.1803 40° Northeast 160 184 13,000  Level Minneapolis Center
Thu 01:38:11 PM 41.4397 -97.1417 40° Northeast 161 185 13,000  Level Minneapolis Center
Thu 01:39:13 PM 41.4811 -97.0947 40° Northeast 161 185 13,000  Level Minneapolis Center
Thu 01:40:15 PM 41.5158 -97.0569 39° Northeast 161 185 13,000  Level Minneapolis Center
Thu 01:41:18 PM 41.5497 -97.0175 41° Northeast 161 185 13,000  Level Minneapolis Center
Thu 01:42:20 PM 41.5844 -96.9792 40° Northeast 161 185 13,000  Level Minneapolis Center
Thu 01:43:22 PM 41.6197 -96.9419 38° Northeast 161 185 13,000  Level Minneapolis Center
Thu 01:44:24 PM 41.6539 -96.9022 41° Northeast 161 185 13,000  Level Minneapolis Center
Thu 01:45:26 PM 41.6947 -96.8567 40° Northeast 161 185 13,000  Level Minneapolis Center
Thu 01:46:28 PM 41.7283 -96.8186 40° Northeast 161 185 13,000  Level Minneapolis Center
Thu 01:47:31 PM 41.7617 -96.7797 41° Northeast 161 185 13,000  Level Minneapolis Center
Thu 01:48:33 PM 41.7964 -96.7419 39° Northeast 161 185 13,000  Level Minneapolis Center
Thu 01:49:35 PM 41.8303 -96.7033 40° Northeast 161 185 13,000  Level Minneapolis Center
Thu 01:50:37 PM 41.8642 -96.6639 41° Northeast 161 185 13,000  Level Minneapolis Center
Thu 01:51:39 PM 41.8986 -96.6242 41° Northeast 161 185 13,000  Level Minneapolis Center
Thu 01:52:41 PM 41.9408 -96.5789 39° Northeast 161 185 13,000 48 Level Minneapolis Center
Thu 01:53:44 PM 41.9753 -96.5386 41° Northeast 161 185 13,100  Climbing Minneapolis Center
Thu 01:54:46 PM 42.0100 -96.4989 40° Northeast 162 186 13,000 -48 Descending Minneapolis Center
Thu 01:55:48 PM 42.0444 -96.4592 41° Northeast 162 186 13,000  Level Minneapolis Center
Thu 01:56:50 PM 42.0783 -96.4192 41° Northeast 162 186 13,000  Level Minneapolis Center
Thu 01:57:52 PM 42.1131 -96.3803 40° Northeast 162 186 13,000 48 Level Minneapolis Center
Thu 01:58:55 PM 42.1542 -96.3331 40° Northeast 162 186 13,100  Climbing Minneapolis Center
Thu 01:59:57 PM 42.1892 -96.2944 39° Northeast 162 186 13,000 -48 Descending Minneapolis Center
Thu 02:00:59 PM 42.2233 -96.2544 41° Northeast 162 186 13,000  Level Minneapolis Center
Thu 02:02:01 PM 42.2572 -96.2139 42° Northeast 162 186 13,000  Level Minneapolis Center
Thu 02:03:03 PM 42.2919 -96.1731 41° Northeast 162 186 13,000  Level Minneapolis Center
Thu 02:04:06 PM 42.3247 -96.1369 39° Northeast 161 185 13,000  Level Minneapolis Center
Thu 02:05:08 PM 42.3661 -96.0883 41° Northeast 160 184 13,000  Level Minneapolis Center
Thu 02:06:10 PM 42.3997 -96.0500 40° Northeast 160 184 13,000  Level Minneapolis Center
Thu 02:07:12 PM 42.4342 -96.0092 41° Northeast 160 184 13,000  Level Minneapolis Center
Thu 02:08:14 PM 42.4675 -95.9700 41° Northeast 160 184 13,000  Level Minneapolis Center
Thu 02:09:16 PM 42.5019 -95.9275 42° Northeast 164 189 13,000  Level Minneapolis Center
Thu 02:10:19 PM 42.5358 -95.8853 43° Northeast 164 189 13,000  Level Minneapolis Center
Thu 02:11:21 PM 42.5764 -95.8406 39° Northeast 163 188 13,000  Level Minneapolis Center
Thu 02:12:23 PM 42.6103 -95.8036 39° Northeast 159 183 13,000  Level Minneapolis Center
Thu 02:13:25 PM 42.6444 -95.7639 41° Northeast 159 183 13,000  Level Minneapolis Center
Thu 02:14:27 PM 42.6772 -95.7242 42° Northeast 159 183 13,000  Level Minneapolis Center
Thu 02:15:30 PM 42.7111 -95.6850 40° Northeast 159 183 13,000  Level Minneapolis Center
Thu 02:16:32 PM 42.7492 -95.6386 42° Northeast 159 183 13,000  Level Minneapolis Center
Thu 02:17:35 PM 42.7828 -95.6006 40° Northeast 159 183 13,000  Level Minneapolis Center
Thu 02:18:37 PM 42.8161 -95.5611 41° Northeast 159 183 13,000 48 Level Minneapolis Center
Thu 02:19:39 PM 42.8494 -95.5211 41° Northeast 159 183 13,100  Climbing Minneapolis Center
Thu 02:20:41 PM 42.8900 -95.4719 42° Northeast 160 184 13,000 -48 Descending Minneapolis Center
Thu 02:21:44 PM 42.9247 -95.4328 40° Northeast 160 184 13,000 48 Level Minneapolis Center
Thu 02:22:46 PM 42.9578 -95.3936 41° Northeast 160 184 13,100  Climbing Minneapolis Center
Thu 02:23:48 PM 42.9922 -95.3519 41° Northeast 160 184 13,000  Descending Minneapolis Center
Thu 02:24:50 PM 43.0258 -95.3114 41° Northeast 161 185 13,100 48 Climbing Minneapolis Center
Thu 02:25:52 PM 43.0667 -95.2622 41° Northeast 162 186 13,100  Level Minneapolis Center
Thu 02:26:55 PM 43.1022 -95.2214 40° Northeast 165 190 13,100  Level Minneapolis Center
Thu 02:27:57 PM 43.1367 -95.1808 41° Northeast 165 190 13,100  Level Minneapolis Center
Thu 02:28:59 PM 43.1717 -95.1397 41° Northeast 166 191 13,100 48 Level Minneapolis Center
Thu 02:30:01 PM 43.2061 -95.0967 42° Northeast 167 192 13,200  Climbing Minneapolis Center
Thu 02:31:03 PM 43.2475 -95.0472 41° Northeast 166 191 13,100 -48 Descending Minneapolis Center
Thu 02:32:06 PM 43.2806 -95.0064 42° Northeast 165 190 13,100 48 Level Minneapolis Center
Thu 02:33:08 PM 43.3156 -94.9653 41° Northeast 165 190 13,200  Climbing Minneapolis Center
Thu 02:34:10 PM 43.3492 -94.9250 41° Northeast 165 190 13,100  Descending Minneapolis Center
Thu 02:35:12 PM 43.3819 -94.8844 42° Northeast 162 186 13,200  Climbing Minneapolis Center
Thu 02:36:14 PM 43.4222 -94.8350 42° Northeast 162 186 13,100 -48 Descending Minneapolis Center
Thu 02:37:16 PM 43.4547 -94.7950 42° Northeast 161 185 13,100  Level Minneapolis Center
Thu 02:38:19 PM 43.4889 -94.7544 41° Northeast 161 185 13,100  Level Minneapolis Center
Thu 02:39:21 PM 43.5217 -94.7139 42° Northeast 161 185 13,100  Level Minneapolis Center
Thu 02:40:23 PM 43.5556 -94.6725 42° Northeast 161 185 13,100 -48 Level Minneapolis Center
Thu 02:41:25 PM 43.5886 -94.6331 41° Northeast 161 185 13,000  Descending Minneapolis Center
Thu 02:42:27 PM 43.6275 -94.5839 42° Northeast 161 185 13,100 48 Climbing Minneapolis Center
Thu 02:43:30 PM 43.6608 -94.5428 42° Northeast 160 184 13,100 -48 Level Minneapolis Center
Thu 02:44:32 PM 43.6947 -94.5028 40° Northeast 160 184 13,000 -48 Descending Minneapolis Center
Thu 02:45:34 PM 43.7283 -94.4600 43° Northeast 161 185 13,000 48 Level Minneapolis Center
Thu 02:46:36 PM 43.7617 -94.4192 41° Northeast 161 185 13,100  Climbing Minneapolis Center
Thu 02:47:38 PM 43.8017 -94.3700 42° Northeast 161 185 13,000 -48 Descending Minneapolis Center
Thu 02:48:41 PM 43.8356 -94.3289 41° Northeast 161 185 13,000 48 Level Minneapolis Center
Thu 02:49:43 PM 43.8692 -94.2878 41° Northeast 161 185 13,100 48 Climbing Minneapolis Center
Thu 02:50:45 PM 43.9033 -94.2431 43° Northeast 162 186 13,100  Level Minneapolis Center
Thu 02:51:47 PM 43.9372 -94.2011 42° Northeast 162 186 13,100  Level Minneapolis Center
Thu 02:52:49 PM 43.9711 -94.1597 41° Northeast 162 186 13,100 -48 Level Minneapolis Center
Thu 02:53:52 PM 44.0039 -94.1175 43° Northeast 162 186 13,000  Descending Minneapolis Center
Thu 02:54:54 PM 44.0442 -94.0678 42° Northeast 162 186 13,100 -290 Climbing Minneapolis Center
Thu 02:55:56 PM 44.0794 -94.0236 42° Northeast 167 192 12,400 -677 Descending Minneapolis Center
Thu 02:56:58 PM 44.1197 -93.9747 41° Northeast 191 220 11,700 -823 Descending Minneapolis Center
Thu 02:58:00 PM 44.1575 -93.9247 44° Northeast 189 217 10,700 -919 Descending Minneapolis Center
Thu 02:59:02 PM 44.1900 -93.8667 52° Northeast 189 217 9,800 -960 Descending Minneapolis Center
Thu 03:00:05 PM 44.2222 -93.8072 53° Northeast 190 219 8,700 -1,104 Descending Minneapolis Center
Thu 03:01:07 PM 44.2603 -93.7364 53° Northeast 191 220 7,500 -1,113 Descending Minneapolis Center
Thu 03:02:09 PM 44.2936 -93.6775 52° Northeast 191 220 6,400 -1,016 Descending Minneapolis Center
Thu 03:03:11 PM 44.3272 -93.6186 51° Northeast 193 222 5,400 -726 Descending Minneapolis Center
Thu 03:04:13 PM 44.3581 -93.5642 52° Northeast 183 211 4,900 -288 Descending Minneapolis Center
Thu 03:05:16 PM 44.3872 -93.5147 50° Northeast 170 196 4,800 -48 Descending Minneapolis Center
Thu 03:06:18 PM 44.4178 -93.4586 53° Northeast 155 178 4,800  Level Minneapolis Center
Thu 03:07:20 PM 44.4419 -93.4125 54° Northeast 152 175 4,800 -145 Level Minneapolis Center
Thu 03:08:22 PM 44.4672 -93.3647 53° Northeast 152 175 4,500 -387 Descending Minneapolis Center
Thu 03:09:24 PM 44.4958 -93.3131 52° Northeast 165 190 4,000 -528 Descending Minneapolis Center
Thu 03:10:27 PM 44.5231 -93.2597 54° Northeast 166 191 3,400 -480 Descending Minneapolis Center
Thu 03:11:29 PM 44.5578 -93.2017 50° Northeast 165 190 3,000 -242 Descending Minneapolis Center
Thu 03:12:31 PM 44.5903 -93.1622 41° Northeast 159 183 2,900 -97 Descending Minneapolis Center
Thu 03:13:33 PM 44.6244 -93.1300 34° Northeast 151 174 2,800  Descending Minneapolis Center
Thu 03:14:35 PM 44.6611 -93.1050 26° Northeast 150 173 2,900 48 Climbing Minneapolis Center
Thu 03:15:38 PM 44.7058 -93.0775 24° Northeast 149 171 2,900 -288 Level Minneapolis Center
Thu 03:16:40 PM 44.7381 -93.0333 44° Northeast 162 186 2,300 -339 Descending Minneapolis Center
Thu 03:17:42 PM 44.7739 -93.0114 23° Northeast 142 163 2,200 -242 Descending Minneapolis Center
Thu 03:18:44 PM 44.8103 -93.0028 10° North 137 158 1,800 -192 Descending Minneapolis Center
Thu 03:19:47 PM 44.8442 -93.0056 357° North 122 140 1,800 -96 Level Minneapolis Center
Thu 03:20:49 PM 44.8767 -93.0242 338° Northwest 116 133 1,600 -435 Descending Minneapolis Center
Thu 03:21:51 PM 44.8575 -93.0322 197° South 104 120 900 -677 Descending Minneapolis Center

Login

Don't have an account? Register now (free) for customized features, flight alerts, and more!